Time;durP1;ratioP1;P1;durP2;ratioP2;P2;SDS_P1;SDS_P2;PMS_P1;PMS_P2;Temp;Humidity;BMP_temperature;BMP_pressure;BME280_temperature;BME280_humidity;BME280_pressure;Samples;Min_cycle;Max_cycle;Signal;HPM_P1;HPM_P2
2022/04/03 00:00:22;;;;;;;3.10;2.73;;;;;;;9.49;nan;-24082.19;4974559;28;20173;-66
2022/04/03 00:02:48;;;;;;;3.13;2.80;;;;;;;9.35;nan;-24078.22;4974541;28;20177;-66
2022/04/03 00:05:13;;;;;;;3.60;2.80;;;;;;;9.20;nan;-24074.00;4974008;28;20225;-67
2022/04/03 00:07:38;;;;;;;3.70;2.93;;;;;;;8.90;nan;-24065.50;4974373;28;20621;-67
2022/04/03 00:10:04;;;;;;;3.73;2.70;;;;;;;9.29;nan;-24076.53;4974097;28;20173;-67
2022/04/03 00:12:30;;;;;;;3.10;2.80;;;;;;;9.02;nan;-24068.91;4974553;28;20177;-67
2022/04/03 00:14:55;;;;;;;3.90;2.93;;;;;;;7.73;nan;-24032.94;4974286;28;20610;-66
2022/04/03 00:17:21;;;;;;;4.13;3.43;;;;;;;8.78;nan;-24062.25;4973886;28;20184;-66
2022/04/03 00:19:47;;;;;;;4.80;3.40;;;;;;;8.64;nan;-24058.44;4973972;28;20549;-66
2022/04/03 00:22:13;;;;;;;6.37;3.47;;;;;;;8.93;nan;-24066.34;4974305;28;20745;-66
2022/04/03 00:24:38;;;;;;;7.23;3.80;;;;;;;8.62;nan;-24057.72;4966934;28;20227;-66
2022/04/03 00:27:04;;;;;;;4.77;3.97;;;;;;;8.99;nan;-24068.03;4963812;28;20208;-65
2022/04/03 00:29:29;;;;;;;4.67;3.70;;;;;;;8.79;nan;-24062.66;4961540;28;20186;-66
2022/04/03 00:31:56;;;;;;;8.90;4.13;;;;;;;9.11;nan;-24071.59;4953962;28;20186;-65
2022/04/03 00:34:21;;;;;;;5.20;3.93;;;;;;;8.76;nan;-24061.69;4968894;28;20181;-66
2022/04/03 00:36:47;;;;;;;5.50;3.50;;;;;;;9.19;nan;-24073.84;4956826;28;20664;-66
2022/04/03 00:39:12;;;;;;;4.50;3.70;;;;;;;9.20;nan;-24074.00;4957179;28;20185;-66
2022/04/03 00:41:39;;;;;;;4.63;3.40;;;;;;;9.13;nan;-24072.16;4973780;28;20624;-66
2022/04/03 00:44:05;;;;;;;4.77;3.80;;;;;;;9.44;nan;-24080.63;4960394;28;20213;-66
2022/04/03 00:46:33;;;;;;;5.20;3.80;;;;;;;9.38;nan;-24079.06;4969325;28;20274;-66
2022/04/03 00:48:59;;;;;;;3.83;3.43;;;;;;;9.12;nan;-24071.88;4955415;28;20196;-65
2022/04/03 00:51:25;;;;;;;4.67;3.23;;;;;;;9.40;nan;-24079.50;4953907;28;20778;-66
2022/04/03 00:53:51;;;;;;;4.63;3.43;;;;;;;9.19;nan;-24073.72;4954115;28;20173;-66
2022/04/03 00:56:16;;;;;;;4.67;3.40;;;;;;;9.53;nan;-24083.16;4954077;28;20602;-66
2022/04/03 00:58:42;;;;;;;3.50;3.20;;;;;;;9.33;nan;-24077.66;4954136;29;20312;-66
2022/04/03 01:01:08;;;;;;;5.50;3.50;;;;;;;9.49;nan;-24082.19;4952066;28;20297;-66
2022/04/03 01:03:33;;;;;;;4.90;3.20;;;;;;;9.35;nan;-24078.22;4953215;29;20340;-66
2022/04/03 01:05:59;;;;;;;4.53;3.40;;;;;;;9.31;nan;-24077.09;4954000;29;20300;-66
2022/04/03 01:08:25;;;;;;;4.73;3.23;;;;;;;9.29;nan;-24076.53;4953906;28;20494;-66
2022/04/03 01:10:51;;;;;;;3.73;3.10;;;;;;;9.08;nan;-24070.59;4954304;29;20190;-66
2022/04/03 01:13:16;;;;;;;5.30;3.30;;;;;;;9.20;nan;-24074.13;4953869;28;20665;-66
2022/04/03 01:15:42;;;;;;;4.33;3.20;;;;;;;9.16;nan;-24073.00;4953674;29;20566;-66
2022/04/03 01:18:08;;;;;;;5.77;3.03;;;;;;;9.02;nan;-24068.91;4953450;28;20196;-66
2022/04/03 01:20:35;;;;;;;4.90;3.30;;;;;;;9.21;nan;-24074.41;4954045;28;20178;-66
2022/04/03 01:23:00;;;;;;;3.43;2.90;;;;;;;9.01;nan;-24068.75;4954112;28;20178;-66
2022/04/03 01:25:26;;;;;;;4.60;3.33;;;;;;;8.84;nan;-24063.94;4953808;29;20202;-66
2022/04/03 01:27:51;;;;;;;4.87;3.10;;;;;;;8.86;nan;-24064.66;4953843;29;20173;-66
2022/04/03 01:30:16;;;;;;;6.87;2.90;;;;;;;9.08;nan;-24070.59;4953541;29;20550;-67
2022/04/03 01:32:42;;;;;;;3.50;3.20;;;;;;;9.26;nan;-24075.69;4953297;29;20174;-67
2022/04/03 01:35:08;;;;;;;5.23;3.37;;;;;;;9.09;nan;-24071.03;4953574;28;20236;-66
2022/04/03 01:37:34;;;;;;;3.97;2.93;;;;;;;9.20;nan;-24074.13;4953553;28;20178;-66
2022/04/03 01:39:59;;;;;;;7.57;3.13;;;;;;;8.80;nan;-24062.94;4953573;28;20184;-66
2022/04/03 01:42:25;;;;;;;4.63;2.80;;;;;;;8.70;nan;-24059.97;4953661;29;20558;-66
2022/04/03 01:44:50;;;;;;;6.17;3.33;;;;;;;8.86;nan;-24064.66;4953635;29;20626;-66
2022/04/03 01:47:15;;;;;;;4.30;3.23;;;;;;;8.72;nan;-24060.56;4953486;28;20285;-66
2022/04/03 01:49:41;;;;;;;4.23;3.20;;;;;;;8.70;nan;-24060.13;4957892;28;20260;-66
2022/04/03 01:52:07;;;;;;;5.80;3.30;;;;;;;8.53;nan;-24055.31;4972813;28;20178;-66
2022/04/03 01:54:32;;;;;;;3.60;3.10;;;;;;;8.60;nan;-24057.16;4972960;28;20702;-66
2022/04/03 01:56:57;;;;;;;3.60;3.17;;;;;;;8.73;nan;-24060.97;4972552;28;20227;-66
2022/04/03 01:59:23;;;;;;;4.23;3.40;;;;;;;8.77;nan;-24062.09;4972367;28;20184;-66
2022/04/03 02:01:48;;;;;;;3.70;3.00;;;;;;;9.22;nan;-24074.69;4972025;28;20559;-66
2022/04/03 02:04:14;;;;;;;5.23;3.47;;;;;;;8.72;nan;-24060.69;4976529;28;20203;-66
2022/04/03 02:06:40;;;;;;;3.83;2.90;;;;;;;8.81;nan;-24063.25;4976844;28;20300;-66
2022/04/03 02:09:07;;;;;;;3.63;2.87;;;;;;;8.78;nan;-24062.38;4976925;28;20656;-66
2022/04/03 02:11:34;;;;;;;5.70;3.70;;;;;;;8.38;nan;-24051.22;4976437;28;20208;-66
2022/04/03 02:14:00;;;;;;;5.60;3.93;;;;;;;9.00;nan;-24068.47;4976374;28;20223;-66
2022/04/03 02:16:26;;;;;;;4.83;3.70;;;;;;;8.80;nan;-24062.94;4976224;28;20663;-66
2022/04/03 02:18:51;;;;;;;5.20;3.60;;;;;;;8.23;nan;-24046.81;4976313;28;20181;-66
2022/04/03 02:21:17;;;;;;;5.77;3.40;;;;;;;8.74;nan;-24061.13;4972604;28;20276;-67
2022/04/03 02:23:43;;;;;;;3.87;3.23;;;;;;;8.20;nan;-24046.09;4962548;28;20260;-66
2022/04/03 02:26:09;;;;;;;6.67;3.80;;;;;;;7.98;nan;-24040.03;4967721;28;20345;-66
2022/04/03 02:28:34;;;;;;;5.47;3.73;;;;;;;8.23;nan;-24046.97;4956838;29;20182;-67
2022/04/03 02:31:01;;;;;;;4.07;3.40;;;;;;;8.07;nan;-24042.44;4969310;28;20700;-66
2022/04/03 02:33:26;;;;;;;5.47;3.87;;;;;;;8.04;nan;-24041.44;4976072;28;20583;-67
2022/04/03 02:35:52;;;;;;;6.00;3.83;;;;;;;7.97;nan;-24039.72;4976122;28;20181;-66
2022/04/03 02:38:18;;;;;;;9.13;4.40;;;;;;;8.00;nan;-24040.44;4975800;28;20633;-66
2022/04/03 02:40:44;;;;;;;6.57;4.70;;;;;;;7.27;nan;-24020.03;4975817;28;20259;-67
2022/04/03 02:43:10;;;;;;;10.27;5.60;;;;;;;7.22;nan;-24018.47;4975784;28;20177;-66
2022/04/03 02:45:36;;;;;;;8.23;5.67;;;;;;;7.40;nan;-24023.59;4955369;28;20222;-67
2022/04/03 02:48:02;;;;;;;8.60;5.90;;;;;;;7.29;nan;-24020.47;4950535;28;20226;-66
2022/04/03 02:50:27;;;;;;;11.27;6.40;;;;;;;6.65;nan;-24002.59;4954775;28;20327;-66
2022/04/03 02:52:54;;;;;;;11.07;6.57;;;;;;;7.07;nan;-24014.50;4955017;29;20193;-66
2022/04/03 02:55:21;;;;;;;11.27;6.77;;;;;;;6.74;nan;-24005.16;4955089;29;20178;-66
2022/04/03 02:57:46;;;;;;;9.40;6.00;;;;;;;6.78;nan;-24006.13;4954765;29;20201;-66
2022/04/03 03:00:17;;;;;;;12.47;7.63;;;;;;;6.74;nan;-24005.00;4954210;28;20182;-66
2022/04/03 03:02:43;;;;;;;10.23;6.50;;;;;;;6.82;nan;-24007.28;4955468;28;20269;-66
2022/04/03 03:05:08;;;;;;;9.53;6.63;;;;;;;7.18;nan;-24017.47;4954907;28;20752;-66
2022/04/03 03:07:39;;;;;;;14.53;7.83;;;;;;;6.86;nan;-24008.56;4955307;29;20598;-66
2022/04/03 03:10:06;;;;;;;10.77;6.70;;;;;;;7.40;nan;-24023.59;4955028;29;20634;-66
2022/04/03 03:12:32;;;;;;;8.90;5.80;;;;;;;7.73;nan;-24032.94;4955007;28;20233;-66
2022/04/03 03:14:57;;;;;;;8.70;5.13;;;;;;;7.75;nan;-24033.50;4954381;28;20612;-65
2022/04/03 03:17:23;;;;;;;7.70;5.33;;;;;;;7.77;nan;-24033.94;4954970;29;20174;-66
2022/04/03 03:19:48;;;;;;;8.17;5.23;;;;;;;7.64;nan;-24030.25;4955160;29;20172;-66
2022/04/03 03:22:14;;;;;;;9.57;5.17;;;;;;;7.30;nan;-24020.75;4954907;28;20170;-66
2022/04/03 03:24:40;;;;;;;10.40;5.90;;;;;;;7.32;nan;-24021.47;4954719;28;20190;-66
2022/04/03 03:27:05;;;;;;;8.00;5.53;;;;;;;7.67;nan;-24031.25;4954629;29;20256;-66
2022/04/03 03:29:31;;;;;;;8.23;5.50;;;;;;;7.63;nan;-24029.97;4954624;29;20178;-66
2022/04/03 03:31:56;;;;;;;9.13;5.60;;;;;;;7.75;nan;-24033.50;4954098;28;20646;-66
2022/04/03 03:34:21;;;;;;;8.70;5.27;;;;;;;7.28;nan;-24020.19;4955287;29;20536;-66
2022/04/03 03:36:47;;;;;;;7.17;5.43;;;;;;;7.32;nan;-24021.31;4954068;29;20185;-66
2022/04/03 03:39:13;;;;;;;7.47;4.63;;;;;;;7.71;nan;-24032.22;4954580;29;20704;-66
2022/04/03 03:41:39;;;;;;;6.43;5.10;;;;;;;7.57;nan;-24028.25;4954533;28;20197;-66
2022/04/03 03:44:10;;;;;;;12.97;8.47;;;;;;;7.60;nan;-24029.25;4953466;29;20673;-66
2022/04/03 03:46:37;;;;;;;10.10;5.83;;;;;;;7.71;nan;-24032.22;4954086;29;20213;-66
2022/04/03 03:49:03;;;;;;;8.90;5.77;;;;;;;7.67;nan;-24031.09;4954684;28;20182;-66
2022/04/03 03:51:28;;;;;;;7.27;5.20;;;;;;;7.69;nan;-24031.81;4917518;28;1110869;-66
2022/04/03 03:53:53;;;;;;;7.17;5.27;;;;;;;7.40;nan;-24023.72;4955458;29;20190;-66
2022/04/03 03:56:19;;;;;;;9.00;5.47;;;;;;;7.88;nan;-24037.03;4954906;29;20646;-66
2022/04/03 03:58:44;;;;;;;9.37;5.50;;;;;;;7.81;nan;-24035.22;4955764;29;20186;-65
2022/04/03 04:01:10;;;;;;;7.93;6.10;;;;;;;7.40;nan;-24023.59;4955173;29;20652;-66
2022/04/03 04:03:35;;;;;;;9.30;5.10;;;;;;;7.96;nan;-24039.44;4954431;29;20611;-65
2022/04/03 04:06:00;;;;;;;7.13;4.90;;;;;;;7.50;nan;-24026.56;4955338;29;20209;-65
2022/04/03 04:08:26;;;;;;;8.57;5.20;;;;;;;7.16;nan;-24016.78;4955021;28;20186;-66
2022/04/03 04:10:51;;;;;;;8.43;5.13;;;;;;;7.63;nan;-24029.97;4954881;29;20186;-66
2022/04/03 04:13:17;;;;;;;6.90;5.27;;;;;;;8.02;nan;-24040.88;4953187;29;20186;-66
2022/04/03 04:15:42;;;;;;;8.70;5.30;;;;;;;8.15;nan;-24044.69;4954970;29;20260;-66
2022/04/03 04:18:07;;;;;;;8.80;5.30;;;;;;;8.16;nan;-24044.84;4954973;29;20189;-66
2022/04/03 04:20:33;;;;;;;7.67;5.50;;;;;;;7.92;nan;-24038.19;4953884;29;20185;-66
2022/04/03 04:22:59;;;;;;;8.80;5.63;;;;;;;8.39;nan;-24051.34;4954871;29;20220;-65
2022/04/03 04:25:24;;;;;;;8.00;5.60;;;;;;;8.30;nan;-24048.94;4953838;28;20296;-65
2022/04/03 04:27:50;;;;;;;9.00;5.27;;;;;;;8.06;nan;-24042.00;4954417;28;20626;-65
2022/04/03 04:30:16;;;;;;;7.97;6.03;;;;;;;7.96;nan;-24039.44;4954677;29;20190;-66
2022/04/03 04:32:42;;;;;;;7.67;5.70;;;;;;;7.72;nan;-24032.50;4955146;28;20630;-66
2022/04/03 04:35:08;;;;;;;10.00;7.10;;;;;;;7.74;nan;-24033.22;4955161;28;20182;-66
2022/04/03 04:37:34;;;;;;;10.00;6.43;;;;;;;8.20;nan;-24046.09;4954903;28;20553;-66
2022/04/03 04:40:00;;;;;;;11.80;6.93;;;;;;;8.18;nan;-24045.41;4954720;28;20186;-66
2022/04/03 04:42:26;;;;;;;12.67;6.97;;;;;;;8.20;nan;-24045.97;4954583;28;20744;-66
2022/04/03 04:44:51;;;;;;;8.50;6.00;;;;;;;8.30;nan;-24048.81;4954581;28;20210;-66
2022/04/03 04:47:17;;;;;;;10.87;6.07;;;;;;;8.37;nan;-24050.94;4954697;28;20191;-66
2022/04/03 04:49:42;;;;;;;9.90;6.20;;;;;;;8.43;nan;-24052.63;4959256;28;20288;-66
2022/04/03 04:52:08;;;;;;;9.30;6.30;;;;;;;8.58;nan;-24056.72;4961513;28;20220;-66
2022/04/03 04:54:35;;;;;;;10.43;6.00;;;;;;;8.56;nan;-24056.03;4958632;28;20333;-66
2022/04/03 04:57:00;;;;;;;9.57;6.10;;;;;;;8.41;nan;-24051.91;4966692;28;20280;-66
2022/04/03 04:59:25;;;;;;;16.17;6.10;;;;;;;8.45;nan;-24053.06;4954846;29;20265;-66
2022/04/03 05:01:51;;;;;;;10.70;6.37;;;;;;;8.93;nan;-24066.34;4965832;28;20212;-66
2022/04/03 05:04:17;;;;;;;11.80;6.83;;;;;;;8.78;nan;-24062.38;4973470;28;20627;-66
2022/04/03 05:06:43;;;;;;;9.70;6.37;;;;;;;8.99;nan;-24068.03;4973474;28;20687;-66
2022/04/03 05:09:09;;;;;;;15.93;9.23;;;;;;;9.02;nan;-24069.03;4973472;28;20252;-66
2022/04/03 05:11:37;;;;;;;12.97;6.73;;;;;;;9.30;nan;-24076.81;4974017;28;20185;-66
2022/04/03 05:14:03;;;;;;;10.63;6.47;;;;;;;9.15;nan;-24072.56;4955988;28;20178;-66
2022/04/03 05:16:29;;;;;;;10.40;7.23;;;;;;;8.83;nan;-24063.81;4973479;28;20320;-67
2022/04/03 05:18:54;;;;;;;10.67;7.30;;;;;;;8.99;nan;-24068.19;4973555;28;20703;-67
2022/04/03 05:21:22;;;;;;;11.57;6.87;;;;;;;9.05;nan;-24069.88;4973315;28;20192;-67
2022/04/03 05:23:49;;;;;;;12.93;6.87;;;;;;;9.16;nan;-24072.84;4973234;28;20205;-67
2022/04/03 05:26:15;;;;;;;8.50;6.20;;;;;;;8.57;nan;-24056.31;4964710;28;20218;-67
2022/04/03 05:28:41;;;;;;;12.03;6.30;;;;;;;8.67;nan;-24059.28;4965053;28;20173;-67
2022/04/03 05:31:06;;;;;;;10.13;6.70;;;;;;;8.60;nan;-24057.16;4960232;28;20189;-67
2022/04/03 05:33:32;;;;;;;10.83;6.80;;;;;;;8.71;nan;-24060.25;4954109;29;20174;-67
2022/04/03 05:35:57;;;;;;;10.33;5.90;;;;;;;8.85;nan;-24064.22;4971301;28;20182;-66
2022/04/03 05:38:23;;;;;;;13.37;6.90;;;;;;;8.91;nan;-24065.94;4957328;28;20273;-67
2022/04/03 05:40:48;;;;;;;10.17;6.40;;;;;;;8.91;nan;-24065.94;4969495;28;20271;-66
2022/04/03 05:43:14;;;;;;;7.50;5.83;;;;;;;8.85;nan;-24064.38;4954837;28;20269;-67
2022/04/03 05:45:39;;;;;;;10.87;5.40;;;;;;;8.80;nan;-24062.94;4957258;28;20236;-66
2022/04/03 05:48:07;;;;;;;7.30;5.10;;;;;;;9.05;nan;-24069.75;4972998;28;20177;-66
2022/04/03 05:50:33;;;;;;;12.67;6.57;;;;;;;9.18;nan;-24073.56;4972884;28;20229;-66
2022/04/03 05:52:59;;;;;;;6.50;4.83;;;;;;;9.15;nan;-24072.72;4972766;28;20173;-66
2022/04/03 05:55:24;;;;;;;6.90;4.17;;;;;;;9.59;nan;-24085.00;4972369;28;20181;-65
2022/04/03 05:57:52;;;;;;;5.90;3.80;;;;;;;9.53;nan;-24083.31;4972647;28;20177;-65
2022/04/03 06:00:20;;;;;;;5.00;4.00;;;;;;;9.31;nan;-24077.25;4972604;28;20174;-65
2022/04/03 06:02:51;;;;;;;7.43;3.80;;;;;;;9.58;nan;-24084.59;4972607;28;20185;-67
2022/04/03 06:05:22;;;;;;;6.93;3.77;;;;;;;9.90;nan;-24093.47;4972340;28;20569;-65
2022/04/03 06:07:47;;;;;;;5.43;3.87;;;;;;;10.13;nan;-24100.13;4972492;28;20231;-66
2022/04/03 06:10:14;;;;;;;5.30;3.60;;;;;;;10.30;nan;-24104.66;4972846;28;20260;-67
2022/04/03 06:13:01;;;;;;;6.80;3.50;;;;;;;10.09;nan;-24098.84;4972716;28;20177;-67
2022/04/03 06:15:29;;;;;;;4.27;2.90;;;;;;;11.27;nan;-24131.88;4972560;28;20664;-66
2022/04/03 06:17:55;;;;;;;5.77;2.90;;;;;;;10.58;nan;-24112.69;4955264;28;20208;-67
2022/04/03 06:20:21;;;;;;;7.37;2.57;;;;;;;10.91;nan;-24121.84;4972240;28;20212;-67
2022/04/03 06:22:47;;;;;;;4.00;2.60;;;;;;;11.12;nan;-24127.50;4972441;28;20212;-65
2022/04/03 06:25:14;;;;;;;4.00;3.10;;;;;;;11.74;nan;-24144.97;4972476;28;20197;-66
2022/04/03 06:27:39;;;;;;;4.25;3.15;;;;;;;11.43;nan;-24136.38;4972419;28;20712;-66
2022/04/03 06:30:05;;;;;;;8.20;3.22;;;;;;;11.62;nan;-24141.59;4972447;28;20256;-66
2022/04/03 06:32:30;;;;;;;4.00;3.10;;;;;;;12.11;nan;-24155.13;4970421;28;20174;-66
2022/04/03 06:34:59;;;;;;;3.67;2.85;;;;;;;11.75;nan;-24145.13;4972113;28;20523;-65
2022/04/03 06:37:24;;;;;;;6.18;3.08;;;;;;;11.83;nan;-24147.38;4972514;28;20568;-67
2022/04/03 06:39:49;;;;;;;4.15;2.90;;;;;;;12.08;nan;-24154.25;4955221;28;20173;-67
2022/04/03 06:42:15;;;;;;;4.28;2.88;;;;;;;12.64;nan;-24169.88;4972619;28;20268;-67
2022/04/03 06:44:41;;;;;;;3.60;2.80;;;;;;;12.38;nan;-24162.72;4972364;28;20178;-67
2022/04/03 06:47:07;;;;;;;4.38;2.72;;;;;;;12.65;nan;-24170.31;4972467;28;20670;-67
2022/04/03 06:49:33;;;;;;;7.40;3.00;;;;;;;13.17;nan;-24184.66;4974648;28;20718;-67
2022/04/03 06:51:59;;;;;;;3.45;2.38;;;;;;;13.10;nan;-24182.69;4976034;28;20185;-67
2022/04/03 06:54:25;;;;;;;5.22;2.80;;;;;;;13.20;nan;-24185.63;4975580;28;20181;-66
2022/04/03 06:56:52;;;;;;;4.57;2.40;;;;;;;13.49;nan;-24193.63;4975521;28;20177;-67
2022/04/03 06:59:18;;;;;;;5.75;2.70;;;;;;;13.55;nan;-24195.19;4975601;28;20185;-67
2022/04/03 07:01:43;;;;;;;3.20;2.83;;;;;;;13.56;nan;-24195.47;4975826;28;20173;-66
2022/04/03 07:04:09;;;;;;;4.05;2.40;;;;;;;13.33;nan;-24189.16;4975280;28;20201;-66
2022/04/03 07:06:34;;;;;;;3.92;2.33;;;;;;;13.40;nan;-24190.97;4960919;28;20214;-68
2022/04/03 07:09:00;;;;;;;2.78;2.08;;;;;;;13.30;nan;-24188.31;4955747;29;20233;-66
2022/04/03 07:11:25;;;;;;;3.00;2.00;;;;;;;13.30;nan;-24188.16;4956482;29;20217;-68
2022/04/03 07:13:50;;;;;;;2.80;2.28;;;;;;;13.36;nan;-24190.00;4955428;29;20182;-67
2022/04/03 07:16:16;;;;;;;4.35;2.22;;;;;;;13.23;nan;-24186.34;4955675;29;20188;-68
2022/04/03 07:18:41;;;;;;;8.00;2.17;;;;;;;13.52;nan;-24194.34;4954889;29;20221;-68
2022/04/03 07:21:07;;;;;;;3.10;1.95;;;;;;;13.19;nan;-24185.22;4954870;29;20178;-66
2022/04/03 07:23:32;;;;;;;2.75;2.30;;;;;;;13.35;nan;-24189.72;4955957;29;20262;-65
2022/04/03 07:25:58;;;;;;;3.58;1.88;;;;;;;13.65;nan;-24198.13;4955614;28;20665;-67
2022/04/03 07:28:23;;;;;;;2.85;2.17;;;;;;;13.57;nan;-24195.88;4955958;28;20178;-67
2022/04/03 07:30:49;;;;;;;3.13;2.17;;;;;;;13.84;nan;-24203.19;4955896;29;20170;-67
2022/04/03 07:33:14;;;;;;;3.90;2.17;;;;;;;13.67;nan;-24198.69;4955937;29;20182;-68
2022/04/03 07:35:40;;;;;;;3.50;2.10;;;;;;;13.75;nan;-24200.81;4954155;28;20196;-68
2022/04/03 07:38:06;;;;;;;2.20;1.63;;;;;;;13.76;nan;-24200.94;4966440;28;20189;-66
2022/04/03 07:40:31;;;;;;;4.10;1.80;;;;;;;13.80;nan;-24202.19;4962112;28;20230;-67
2022/04/03 07:42:57;;;;;;;2.72;1.70;;;;;;;14.20;nan;-24213.16;4954992;28;20178;-67
2022/04/03 07:45:22;;;;;;;3.70;1.80;;;;;;;14.04;nan;-24208.94;4961729;28;20228;-68
2022/04/03 07:47:49;;;;;;;3.58;2.47;;;;;;;14.06;nan;-24209.34;4953219;28;20186;-67
2022/04/03 07:50:18;;;;;;;3.97;1.80;;;;;;;14.21;nan;-24213.44;4957378;28;20226;-67
2022/04/03 07:52:44;;;;;;;2.72;1.70;;;;;;;14.45;nan;-24220.16;4962739;28;20178;-68
2022/04/03 07:55:12;;;;;;;4.43;1.80;;;;;;;14.68;nan;-24226.63;4960491;28;20248;-67
2022/04/03 07:57:39;;;;;;;7.18;2.00;;;;;;;14.32;nan;-24216.66;4957663;28;20233;-68
2022/04/03 08:00:10;;;;;;;3.33;1.60;;;;;;;14.72;nan;-24227.59;4960392;28;20181;-68
2022/04/03 08:02:40;;;;;;;3.00;1.90;;;;;;;14.92;nan;-24233.34;4957301;28;20229;-66
2022/04/03 08:05:06;;;;;;;3.10;1.80;;;;;;;14.58;nan;-24223.94;4958888;28;20193;-67
2022/04/03 08:07:35;;;;;;;2.55;1.65;;;;;;;14.96;nan;-24234.47;4961288;28;20189;-72
2022/04/03 08:10:01;;;;;;;1.85;1.58;;;;;;;15.00;nan;-24235.44;4961615;28;20181;-71
2022/04/03 08:12:26;;;;;;;2.10;1.65;;;;;;;14.96;nan;-24234.47;4959035;28;20313;-72
2022/04/03 08:14:52;;;;;;;4.38;1.63;;;;;;;14.29;nan;-24215.69;4957403;28;20653;-72
2022/04/03 08:17:18;;;;;;;1.50;1.40;;;;;;;14.67;nan;-24226.34;4957030;28;20550;-72
2022/04/03 08:19:43;;;;;;;2.22;1.33;;;;;;;14.27;nan;-24215.13;4955005;28;20189;-71
2022/04/03 08:22:09;;;;;;;2.00;1.25;;;;;;;14.23;nan;-24214.00;4956736;28;20642;-72
2022/04/03 08:24:34;;;;;;;1.27;1.17;;;;;;;14.03;nan;-24208.66;4954575;29;20277;-71
2022/04/03 08:26:59;;;;;;;7.65;1.10;;;;;;;13.97;nan;-24206.97;4954648;29;20206;-72
2022/04/03 08:29:25;;;;;;;1.23;1.13;;;;;;;14.31;nan;-24216.22;4954441;29;20233;-72
2022/04/03 08:31:50;;;;;;;1.48;1.38;;;;;;;13.95;nan;-24206.28;4954760;29;20173;-72
2022/04/03 08:34:15;;;;;;;1.80;1.23;;;;;;;13.93;nan;-24205.72;4954755;29;20563;-72
2022/04/03 08:36:41;;;;;;;1.50;1.13;;;;;;;14.36;nan;-24217.66;4954202;29;20186;-73
2022/04/03 08:39:07;;;;;;;1.20;1.00;;;;;;;14.54;nan;-24222.84;4954633;28;20241;-72
2022/04/03 08:41:33;;;;;;;1.80;1.27;;;;;;;14.07;nan;-24209.78;4954495;28;20626;-72
2022/04/03 08:43:58;;;;;;;1.40;1.30;;;;;;;14.23;nan;-24214.13;4954188;28;20182;-72
2022/04/03 08:46:25;;;;;;;1.30;1.20;;;;;;;14.76;nan;-24228.84;4954373;28;20225;-72
2022/04/03 08:48:51;;;;;;;1.95;1.33;;;;;;;14.51;nan;-24222.00;4954019;28;20198;-72
2022/04/03 08:51:18;;;;;;;1.27;1.17;;;;;;;14.57;nan;-24223.53;4971726;28;20217;-73
2022/04/03 08:53:45;;;;;;;2.20;1.65;;;;;;;14.85;nan;-24231.38;4973334;28;20174;-73
2022/04/03 08:56:11;;;;;;;2.05;1.40;;;;;;;15.27;nan;-24242.88;4973596;28;20188;-72
2022/04/03 08:58:36;;;;;;;1.85;1.60;;;;;;;15.31;nan;-24244.00;4972987;28;20174;-73
2022/04/03 09:01:02;;;;;;;2.33;1.40;;;;;;;15.18;nan;-24240.50;4973409;28;20551;-73
2022/04/03 09:03:28;;;;;;;2.10;1.30;;;;;;;14.68;nan;-24226.63;4973120;28;20185;-72
2022/04/03 09:06:11;;;;;;;1.67;1.20;;;;;;;14.45;nan;-24220.31;4973316;28;20804;-73
2022/04/03 09:08:37;;;;;;;3.72;1.33;;;;;;;14.79;nan;-24229.69;4955784;28;20609;-72
2022/04/03 09:11:05;;;;;;;1.77;1.42;;;;;;;14.42;nan;-24219.31;4955335;28;20244;-72
2022/04/03 09:13:30;;;;;;;0.93;0.93;;;;;;;14.82;nan;-24230.41;4973287;28;20181;-72
2022/04/03 09:15:56;;;;;;;4.65;1.25;;;;;;;14.99;nan;-24235.31;4973105;28;20173;-72
2022/04/03 09:18:21;;;;;;;1.20;1.10;;;;;;;14.98;nan;-24235.03;4973283;28;20169;-72
2022/04/03 09:20:47;;;;;;;1.17;1.05;;;;;;;14.56;nan;-24223.41;4973019;28;20169;-72
2022/04/03 09:23:17;;;;;;;1.60;1.50;;;;;;;15.26;nan;-24242.59;4972926;28;20184;-72
2022/04/03 09:25:43;;;;;;;1.33;1.23;;;;;;;14.56;nan;-24223.41;4972329;28;20193;-71
2022/04/03 09:28:16;;;;;;;1.85;1.40;;;;;;;14.97;nan;-24234.75;4972863;28;20176;-71
2022/04/03 09:30:47;;;;;;;1.50;1.40;;;;;;;15.12;nan;-24238.66;4973106;28;20249;-72
2022/04/03 09:33:20;;;;;;;1.58;1.30;;;;;;;14.97;nan;-24234.75;4973061;28;20166;-71
2022/04/03 09:36:01;;;;;;;1.20;1.10;;;;;;;14.77;nan;-24229.13;4972602;28;20181;-72
2022/04/03 09:38:27;;;;;;;1.33;1.17;;;;;;;15.10;nan;-24238.09;4972922;28;20176;-72
2022/04/03 09:40:53;;;;;;;1.30;1.15;;;;;;;15.34;nan;-24244.97;4973188;28;20173;-71
2022/04/03 09:43:22;;;;;;;2.90;1.30;;;;;;;15.45;nan;-24247.91;4973003;28;20256;-72
2022/04/03 09:45:50;;;;;;;2.15;1.30;;;;;;;15.31;nan;-24244.13;4972820;28;20197;-71
2022/04/03 09:48:31;;;;;;;1.30;1.20;;;;;;;15.25;nan;-24242.31;4972875;28;20169;-72
2022/04/03 09:51:02;;;;;;;2.35;1.30;;;;;;;15.67;nan;-24254.06;4972555;28;20252;-72
2022/04/03 09:53:29;;;;;;;1.88;1.20;;;;;;;15.61;nan;-24252.25;4972836;28;20230;-71
2022/04/03 09:55:55;;;;;;;2.33;1.33;;;;;;;15.84;nan;-24258.84;4972603;28;20653;-71
2022/04/03 09:58:22;;;;;;;1.30;1.20;;;;;;;15.55;nan;-24250.56;4972744;28;20217;-72
2022/04/03 10:00:47;;;;;;;1.60;1.40;;;;;;;15.95;nan;-24261.78;4972818;28;20162;-72
2022/04/03 10:03:13;;;;;;;1.70;1.48;;;;;;;16.04;nan;-24264.16;4972295;28;20255;-72
2022/04/03 10:05:39;;;;;;;2.17;1.58;;;;;;;15.76;nan;-24256.59;4972594;28;20323;-71
2022/04/03 10:08:06;;;;;;;1.40;1.23;;;;;;;16.51;nan;-24277.28;4972630;28;20173;-72
2022/04/03 10:10:34;;;;;;;1.42;1.20;;;;;;;16.81;nan;-24285.53;4973182;28;20177;-73
2022/04/03 10:13:00;;;;;;;2.90;1.20;;;;;;;17.20;nan;-24296.44;4972500;28;20630;-72
2022/04/03 10:15:27;;;;;;;2.65;1.40;;;;;;;17.34;nan;-24300.19;4972441;28;20688;-72
2022/04/03 10:17:53;;;;;;;1.48;1.20;;;;;;;17.86;nan;-24314.56;4972350;28;20192;-72
2022/04/03 10:20:19;;;;;;;5.93;1.40;;;;;;;17.54;nan;-24305.63;4972596;28;20256;-72
2022/04/03 10:22:49;;;;;;;3.78;1.40;;;;;;;17.39;nan;-24301.59;4972692;28;20725;-72
2022/04/03 10:25:20;;;;;;;3.10;1.42;;;;;;;17.10;nan;-24293.63;4975572;28;20229;-72
2022/04/03 10:27:47;;;;;;;1.85;1.20;;;;;;;16.79;nan;-24285.13;4976229;28;20200;-73
2022/04/03 10:30:16;;;;;;;1.25;1.15;;;;;;;16.46;nan;-24275.88;4976025;28;20629;-71
2022/04/03 10:32:56;;;;;;;1.42;1.20;;;;;;;16.49;nan;-24276.59;4976207;28;20181;-73
2022/04/03 10:35:22;;;;;;;1.55;1.42;;;;;;;16.09;nan;-24265.56;4976426;28;20209;-73
2022/04/03 10:38:06;;;;;;;2.10;1.40;;;;;;;16.28;nan;-24271.00;4976183;28;20209;-72
2022/04/03 10:40:34;;;;;;;2.17;1.40;;;;;;;16.41;nan;-24274.34;4975720;28;20252;-72
2022/04/03 10:43:03;;;;;;;2.05;1.50;;;;;;;16.01;nan;-24263.31;4977967;28;20177;-72
2022/04/03 10:45:34;;;;;;;1.40;1.30;;;;;;;15.95;nan;-24261.63;4975938;28;20197;-72
2022/04/03 10:48:21;;;;;;;2.92;1.30;;;;;;;16.22;nan;-24269.19;4975925;28;20319;-73
2022/04/03 10:51:05;;;;;;;2.40;1.45;;;;;;;15.77;nan;-24256.72;4976045;28;20685;-72
2022/04/03 10:53:36;;;;;;;1.30;1.20;;;;;;;16.09;nan;-24265.69;4975854;28;20649;-72
2022/04/03 10:56:11;;;;;;;1.60;1.33;;;;;;;16.08;nan;-24265.28;4976201;28;20177;-74
2022/04/03 10:58:39;;;;;;;1.50;1.40;;;;;;;15.77;nan;-24256.88;4958445;28;20247;-72
2022/04/03 11:01:05;;;;;;;2.00;1.20;;;;;;;15.86;nan;-24259.25;4975663;28;20205;-73
2022/04/03 11:03:32;;;;;;;5.13;1.40;;;;;;;15.96;nan;-24262.06;4974896;28;20583;-70
2022/04/03 11:06:17;;;;;;;5.28;1.40;;;;;;;16.48;nan;-24276.44;4975319;28;20201;-72
2022/04/03 11:08:53;;;;;;;1.73;1.30;;;;;;;16.55;nan;-24278.41;4975504;28;20688;-72
2022/04/03 11:11:30;;;;;;;3.55;1.20;;;;;;;16.53;nan;-24277.72;4963204;28;20186;-72
2022/04/03 11:13:56;;;;;;;1.40;1.30;;;;;;;16.08;nan;-24265.41;4970369;28;20232;-72
2022/04/03 11:16:22;;;;;;;1.45;1.35;;;;;;;16.45;nan;-24275.47;4958688;28;20210;-71
2022/04/03 11:18:50;;;;;;;1.55;1.35;;;;;;;16.65;nan;-24281.06;4960130;28;20677;-72
2022/04/03 11:21:33;;;;;;;2.60;1.30;;;;;;;16.36;nan;-24273.09;4958992;28;20664;-72
2022/04/03 11:24:03;;;;;;;1.73;1.13;;;;;;;16.65;nan;-24281.22;4974941;28;20704;-73
2022/04/03 11:26:29;;;;;;;2.22;1.23;;;;;;;16.28;nan;-24270.84;4974693;28;20617;-72
2022/04/03 11:28:55;;;;;;;1.30;1.17;;;;;;;16.07;nan;-24265.13;4968226;28;20282;-68
2022/04/03 11:31:21;;;;;;;1.42;1.20;;;;;;;16.60;nan;-24279.81;4964586;28;20568;-69
2022/04/03 11:33:47;;;;;;;1.10;1.00;;;;;;;16.61;nan;-24280.09;4966962;28;20188;-69
2022/04/03 11:36:24;;;;;;;2.22;1.20;;;;;;;16.91;nan;-24288.19;4974606;28;20178;-69
2022/04/03 11:38:51;;;;;;;1.45;1.33;;;;;;;16.64;nan;-24280.78;4974497;28;20609;-68
2022/04/03 11:41:22;;;;;;;1.52;1.30;;;;;;;16.96;nan;-24289.59;4974935;28;20188;-67
2022/04/03 11:44:06;;;;;;;1.42;1.30;;;;;;;17.06;nan;-24292.38;4974650;28;20181;-67